createdAt,value
2018-08-04T00:00:15.836Z,99.90
2018-08-04T00:02:44.748Z,99.90
2018-08-04T00:07:42.177Z,99.90
2018-08-04T00:10:16.238Z,99.90
2018-08-04T00:12:46.003Z,99.90
2018-08-04T00:15:14.976Z,99.90
2018-08-04T00:17:43.851Z,99.90
2018-08-04T00:20:12.865Z,99.90
2018-08-04T00:22:41.714Z,99.90
2018-08-04T00:25:10.652Z,99.90
2018-08-04T00:27:39.520Z,99.90
2018-08-04T00:30:11.372Z,99.90
2018-08-04T00:32:40.540Z,99.90
2018-08-04T00:37:38.903Z,99.90
2018-08-04T00:40:09.966Z,99.90
2018-08-04T00:42:38.734Z,99.90
2018-08-04T00:45:07.462Z,99.90
2018-08-04T00:47:36.178Z,99.90
2018-08-04T00:50:06.027Z,99.90
2018-08-04T00:52:34.778Z,99.90
2018-08-04T00:55:03.865Z,99.90
2018-08-04T01:00:01.373Z,99.90
2018-08-04T01:02:30.151Z,99.90
2018-08-04T01:04:59.006Z,99.90
2018-08-04T01:07:27.647Z,99.90
2018-08-04T01:10:00.389Z,99.90
2018-08-04T01:12:29.248Z,99.90
2018-08-04T01:14:58.123Z,99.90
2018-08-04T01:17:27.268Z,99.90
2018-08-04T01:19:58.420Z,99.90
2018-08-04T01:22:27.419Z,99.90
2018-08-04T01:24:56.076Z,99.90
2018-08-04T01:27:24.991Z,99.90
2018-08-04T01:29:53.987Z,99.90
2018-08-04T01:32:22.980Z,99.90
2018-08-04T01:34:52.397Z,99.90
2018-08-04T01:37:21.715Z,99.90
2018-08-04T01:39:50.520Z,99.90
2018-08-04T01:42:19.364Z,99.90
2018-08-04T01:44:48.166Z,99.90
2018-08-04T01:47:16.836Z,99.90
2018-08-04T01:49:45.588Z,99.90
2018-08-04T01:54:43.055Z,99.90
2018-08-04T01:57:11.914Z,99.90
2018-08-04T01:59:41.044Z,99.90
2018-08-04T02:02:09.870Z,99.90
2018-08-04T02:04:39.645Z,99.90
2018-08-04T02:07:09.109Z,99.90
2018-08-04T02:09:37.800Z,99.90
2018-08-04T02:12:06.767Z,99.90
2018-08-04T02:14:36.179Z,99.90
2018-08-04T02:17:05.059Z,99.90
2018-08-04T02:19:34.035Z,99.90
2018-08-04T02:22:02.823Z,99.90
2018-08-04T02:24:31.734Z,99.90
2018-08-04T02:27:00.332Z,99.90
2018-08-04T02:29:29.415Z,99.90
2018-08-04T02:31:58.164Z,99.90
2018-08-04T02:34:26.990Z,99.90
2018-08-04T02:36:56.001Z,99.90
2018-08-04T02:39:24.881Z,99.90
2018-08-04T02:41:53.792Z,99.90
2018-08-04T02:44:22.886Z,99.90
2018-08-04T02:46:51.650Z,99.90
2018-08-04T02:49:20.988Z,99.90
2018-08-04T02:51:49.944Z,99.90
2018-08-04T02:54:19.331Z,99.90
2018-08-04T02:59:16.744Z,99.90
2018-08-04T03:01:45.614Z,99.90
2018-08-04T03:04:14.644Z,99.90
2018-08-04T03:06:43.601Z,99.90
2018-08-04T03:09:13.098Z,99.90
2018-08-04T03:11:42.330Z,99.90
2018-08-04T03:14:11.293Z,99.90
2018-08-04T03:16:39.994Z,99.90
2018-08-04T03:19:08.840Z,99.90
2018-08-04T03:21:37.855Z,99.90
2018-08-04T03:24:06.818Z,99.90
2018-08-04T03:29:04.254Z,99.90
2018-08-04T03:31:33.066Z,99.90
2018-08-04T03:34:02.086Z,99.90
2018-08-04T03:38:59.428Z,99.90
2018-08-04T03:41:28.276Z,99.90
2018-08-04T03:43:57.050Z,99.90
2018-08-04T03:46:25.824Z,99.90
2018-08-04T03:48:54.490Z,99.90
2018-08-04T03:51:23.394Z,99.90
2018-08-04T03:56:20.616Z,99.90
2018-08-04T03:58:49.432Z,99.90
2018-08-04T04:01:18.405Z,99.90
2018-08-04T04:03:48.380Z,99.90
2018-08-04T04:06:17.358Z,99.90
2018-08-04T04:08:46.783Z,99.90
2018-08-04T04:11:15.561Z,99.90
2018-08-04T04:13:44.855Z,99.90
2018-08-04T04:16:13.688Z,99.90
2018-08-04T04:18:42.586Z,99.90
2018-08-04T04:21:11.477Z,99.90
2018-08-04T04:23:40.473Z,99.90
2018-08-04T04:26:09.561Z,99.90
2018-08-04T04:28:38.751Z,99.90
2018-08-04T04:31:07.708Z,99.90
2018-08-04T04:33:36.223Z,99.90
2018-08-04T04:36:05.180Z,99.90
2018-08-04T04:38:34.538Z,99.90
2018-08-04T04:41:03.871Z,99.90
2018-08-04T04:46:01.209Z,99.90
2018-08-04T04:48:30.278Z,99.90
2018-08-04T04:50:59.569Z,99.90
2018-08-04T04:53:28.276Z,99.90
2018-08-04T04:55:59.806Z,99.90
2018-08-04T05:07:07.012Z,99.90
2018-08-04T05:09:37.489Z,99.90
2018-08-04T05:12:06.235Z,99.90
2018-08-04T05:17:04.670Z,99.90
2018-08-04T05:19:33.681Z,99.90
2018-08-04T05:22:02.857Z,99.90
2018-08-04T05:24:31.827Z,99.90
2018-08-04T05:27:00.646Z,99.90
2018-08-04T05:29:29.569Z,99.90
2018-08-04T05:31:58.274Z,99.90
2018-08-04T05:34:27.197Z,99.90
2018-08-04T05:36:56.021Z,99.90
2018-08-04T05:39:24.884Z,99.90
2018-08-04T05:41:53.726Z,99.90
2018-08-04T05:44:22.814Z,99.90
2018-08-04T05:46:52.516Z,99.90
2018-08-04T05:49:21.363Z,99.90
2018-08-04T05:51:50.178Z,99.90
2018-08-04T05:54:19.369Z,99.90
2018-08-04T05:56:48.683Z,99.90
2018-08-04T05:59:18.001Z,99.90
2018-08-04T06:01:47.008Z,99.90
2018-08-04T06:04:16.149Z,99.90
2018-08-04T06:06:44.942Z,99.90
2018-08-04T06:09:13.521Z,99.90
2018-08-04T06:11:42.314Z,99.90
2018-08-04T06:14:11.319Z,99.90
2018-08-04T06:16:39.998Z,99.90
2018-08-04T06:19:08.565Z,99.90
2018-08-04T06:21:37.320Z,99.90
2018-08-04T06:24:05.928Z,99.90
2018-08-04T06:26:34.864Z,99.90
2018-08-04T06:29:03.922Z,99.90
2018-08-04T06:31:32.983Z,99.90
2018-08-04T06:34:02.048Z,99.90
2018-08-04T06:36:31.129Z,99.90
2018-08-04T06:39:00.317Z,99.90
2018-08-04T06:41:29.269Z,99.90
2018-08-04T06:43:58.305Z,99.90
2018-08-04T06:46:31.052Z,99.90
2018-08-04T06:49:00.682Z,99.90
2018-08-04T06:51:29.955Z,99.90
2018-08-04T06:54:00.682Z,99.90
2018-08-04T06:56:30.058Z,99.90
2018-08-04T06:58:59.552Z,99.90
2018-08-04T07:01:29.272Z,99.90
2018-08-04T07:04:00.276Z,99.90
2018-08-04T07:06:29.702Z,99.90
2018-08-04T07:09:00.079Z,99.90
2018-08-04T07:11:31.443Z,99.90
2018-08-04T07:14:00.844Z,99.90
2018-08-04T07:16:31.685Z,99.90
2018-08-04T07:25:04.733Z,99.90
2018-08-04T07:28:11.395Z,99.90
2018-08-04T07:31:08.234Z,99.90
2018-08-04T07:36:39.627Z,99.90
2018-08-04T07:39:17.990Z,99.90
2018-08-04T07:41:47.415Z,99.90
2018-08-04T07:44:33.699Z,99.90
2018-08-04T07:47:06.743Z,99.90
2018-08-04T07:49:37.897Z,99.90
2018-08-04T07:52:07.864Z,99.90
2018-08-04T07:54:37.604Z,99.90
2018-08-04T07:58:16.794Z,99.90
2018-08-04T08:00:46.099Z,99.90
2018-08-04T08:03:20.754Z,99.90
2018-08-04T08:05:51.844Z,99.90
2018-08-04T08:08:20.919Z,99.90
2018-08-04T08:10:51.591Z,99.90
2018-08-04T08:13:20.949Z,99.90
2018-08-04T08:15:50.187Z,99.90
2018-08-04T08:18:19.568Z,99.90
2018-08-04T08:20:48.909Z,98.80
2018-08-04T08:23:18.552Z,99.70
2018-08-04T08:25:58.718Z,97.30
2018-08-04T08:28:29.761Z,96.30
2018-08-04T08:30:59.480Z,97.10
2018-08-04T08:33:28.682Z,97.00
2018-08-04T08:35:58.294Z,93.30
2018-08-04T08:38:30.144Z,91.50
2018-08-04T08:41:01.245Z,92.50
2018-08-04T08:43:32.547Z,92.80
2018-08-04T08:46:01.585Z,90.50
2018-08-04T08:48:30.670Z,90.70
2018-08-04T08:50:59.565Z,88.70
2018-08-04T08:53:28.738Z,88.40
2018-08-04T08:55:57.883Z,88.40
2018-08-04T08:58:26.850Z,90.40
2018-08-04T09:00:55.895Z,90.20
2018-08-04T09:03:25.835Z,89.40
2018-08-04T09:05:55.183Z,87.40
2018-08-04T09:14:15.012Z,86.40
2018-08-04T09:16:43.697Z,84.60
2018-08-04T09:19:12.522Z,84.70
2018-08-04T09:21:41.635Z,84.30
2018-08-04T09:24:10.680Z,85.50
2018-08-04T09:26:39.674Z,84.80
2018-08-04T09:29:08.960Z,84.00
2018-08-04T09:31:38.410Z,82.90
2018-08-04T09:34:07.866Z,82.50
2018-08-04T10:18:58.876Z,78.70
2018-08-04T10:21:28.061Z,69.70
2018-08-04T10:23:56.810Z,67.00
2018-08-04T10:26:29.248Z,66.90
2018-08-04T10:28:58.955Z,67.90
2018-08-04T10:31:28.139Z,67.10
2018-08-04T10:33:57.218Z,63.20
2018-08-04T10:36:26.577Z,62.00
2018-08-04T10:38:55.464Z,64.00
2018-08-04T10:41:24.573Z,64.20
2018-08-04T10:43:53.680Z,68.20
2018-08-04T10:46:22.639Z,61.60
2018-08-04T10:48:52.378Z,63.30
2018-08-04T10:51:21.388Z,63.20
2018-08-04T10:56:19.005Z,62.30
2018-08-04T10:58:48.181Z,62.80
2018-08-04T11:01:17.505Z,62.90
2018-08-04T11:03:46.711Z,62.40
2018-08-04T11:08:48.813Z,64.40
2018-08-04T11:11:58.284Z,63.10
2018-08-04T11:14:32.857Z,62.70
2018-08-04T11:17:23.659Z,62.10
2018-08-04T11:20:24.862Z,61.80
2018-08-04T11:28:40.794Z,65.50
2018-08-04T11:31:09.842Z,65.20
2018-08-04T11:33:39.634Z,66.50
2018-08-04T11:36:11.640Z,66.10
2018-08-04T11:38:43.490Z,66.10
2018-08-04T11:41:12.787Z,66.60
2018-08-04T11:43:41.871Z,67.00
2018-08-04T11:46:11.355Z,66.90
2018-08-04T11:48:41.053Z,67.20
2018-08-04T11:51:10.341Z,68.10
2018-08-04T11:53:40.559Z,66.20
2018-08-04T11:56:09.841Z,65.80
2018-08-04T11:58:38.829Z,64.50
2018-08-04T12:01:08.111Z,65.00
2018-08-04T12:03:40.800Z,64.90
2018-08-04T12:06:09.961Z,64.00
2018-08-04T12:08:41.767Z,64.30
2018-08-04T12:11:13.050Z,63.10
2018-08-04T12:13:41.988Z,62.60
2018-08-04T12:16:11.589Z,63.00
2018-08-04T12:18:40.908Z,63.60
2018-08-04T12:21:14.889Z,65.00
2018-08-04T12:23:51.172Z,63.80
2018-08-04T12:26:20.568Z,64.80
2018-08-04T12:28:50.824Z,65.50
2018-08-04T12:31:20.480Z,65.00
2018-08-04T12:33:51.112Z,64.10
2018-08-04T12:36:20.492Z,63.10
2018-08-04T12:38:49.809Z,62.30
2018-08-04T12:41:19.141Z,62.80
2018-08-04T12:43:48.636Z,62.50
2018-08-04T12:46:20.778Z,62.40
2018-08-04T12:48:49.883Z,62.20
2018-08-04T12:51:21.508Z,61.30
2018-08-04T12:53:51.284Z,61.40
2018-08-04T12:56:21.124Z,61.50
2018-08-04T12:58:51.123Z,61.20
2018-08-04T13:01:39.890Z,61.10
2018-08-04T13:04:09.485Z,61.20
2018-08-04T13:06:39.894Z,60.80
2018-08-04T13:09:11.380Z,60.50
2018-08-04T13:11:52.885Z,59.80
2018-08-04T13:14:25.158Z,61.00
2018-08-04T13:16:54.696Z,61.50
2018-08-04T13:19:24.267Z,61.40
2018-08-04T13:21:54.603Z,61.20
2018-08-04T13:24:24.683Z,60.20
2018-08-04T13:26:58.353Z,59.80
2018-08-04T14:44:30.648Z,60.00
2018-08-04T14:46:59.764Z,59.30
2018-08-04T14:49:29.218Z,58.40
2018-08-04T14:51:58.930Z,57.50
2018-08-04T14:54:29.156Z,56.80
2018-08-04T14:56:59.620Z,57.10
2018-08-04T14:59:29.964Z,56.40
2018-08-04T15:01:58.960Z,56.50
2018-08-04T15:04:28.202Z,56.40
2018-08-04T15:06:56.945Z,56.40
2018-08-04T15:09:26.191Z,55.40
2018-08-04T15:11:55.677Z,54.70
2018-08-04T15:14:24.837Z,54.70
2018-08-04T15:16:54.171Z,54.10
2018-08-04T15:19:23.777Z,53.90
2018-08-04T15:21:52.768Z,53.80
2018-08-04T15:24:21.911Z,54.70
2018-08-04T15:26:52.816Z,54.90
2018-08-04T15:29:22.302Z,54.80
2018-08-04T15:31:51.291Z,54.70
2018-08-04T15:34:23.705Z,54.50
2018-08-04T15:36:53.218Z,54.90
2018-08-04T15:39:29.479Z,54.80
2018-08-04T15:42:02.631Z,53.60
2018-08-04T15:44:39.880Z,54.40
2018-08-04T15:47:09.061Z,54.40
2018-08-04T15:49:44.448Z,54.30
2018-08-04T15:52:13.522Z,53.90
2018-08-04T15:54:48.016Z,53.60
2018-08-04T15:57:17.415Z,54.80
2018-08-04T15:59:46.830Z,54.20
2018-08-04T16:02:17.188Z,54.90
2018-08-04T16:07:15.983Z,55.50
2018-08-04T16:09:53.389Z,55.70
2018-08-04T16:12:24.916Z,56.30
2018-08-04T16:15:01.999Z,56.50
2018-08-04T16:17:32.358Z,56.70
2018-08-04T16:20:04.659Z,57.80
2018-08-04T16:22:43.192Z,59.20
2018-08-04T16:25:16.201Z,59.60
2018-08-04T16:27:47.201Z,59.50
2018-08-04T16:30:16.884Z,59.30
2018-08-04T16:32:46.992Z,58.60
2018-08-04T16:35:16.662Z,58.10
2018-08-04T16:37:46.119Z,58.20
2018-08-04T16:40:15.370Z,58.00
2018-08-04T16:42:46.322Z,57.60
2018-08-04T16:55:18.560Z,56.30
2018-08-04T16:57:47.610Z,55.50
2018-08-04T17:00:17.206Z,54.90
2018-08-04T17:02:46.251Z,54.00
2018-08-04T17:05:16.557Z,53.80
2018-08-04T17:07:45.561Z,53.40
2018-08-04T17:10:14.505Z,53.70
2018-08-04T17:12:45.035Z,53.30
2018-08-04T17:15:13.986Z,52.90
2018-08-04T17:17:43.964Z,53.10
2018-08-04T17:20:14.036Z,53.10
2018-08-04T17:25:11.833Z,53.10
2018-08-04T17:27:40.861Z,54.40
2018-08-04T17:30:10.093Z,55.90
2018-08-04T17:32:39.285Z,57.50
2018-08-04T17:35:12.925Z,59.80
2018-08-04T17:37:42.277Z,59.40
2018-08-04T17:40:11.801Z,59.70
2018-08-04T17:42:41.133Z,60.10
2018-08-04T17:50:09.076Z,62.40
2018-08-04T17:52:38.734Z,63.10
2018-08-04T17:55:08.072Z,64.20
2018-08-04T17:57:37.950Z,64.50
2018-08-04T18:00:08.213Z,64.30
2018-08-04T18:02:38.928Z,66.20
2018-08-04T18:05:29.284Z,66.90
2018-08-04T18:08:01.974Z,65.80
2018-08-04T18:10:33.698Z,69.70
2018-08-04T18:13:03.962Z,67.80
2018-08-04T18:15:40.255Z,68.70
2018-08-04T18:18:10.805Z,73.20
2018-08-04T18:20:40.304Z,70.20
2018-08-04T18:23:09.690Z,79.40
2018-08-04T18:25:39.115Z,70.40
2018-08-04T18:28:09.121Z,71.00
2018-08-04T18:30:38.363Z,71.90
2018-08-04T18:33:09.438Z,72.10
2018-08-04T18:35:40.939Z,73.70
2018-08-04T18:38:12.248Z,75.10
2018-08-04T18:40:41.417Z,77.40
2018-08-04T18:43:10.676Z,76.40
2018-08-04T18:45:39.878Z,77.70
2018-08-04T18:48:09.424Z,84.60
2018-08-04T18:50:39.204Z,78.00
2018-08-04T18:53:08.960Z,78.20
2018-08-04T18:58:06.897Z,80.00
2018-08-04T19:00:36.036Z,81.40
2018-08-04T19:03:05.603Z,88.40
2018-08-04T19:05:34.861Z,90.00
2018-08-04T19:08:09.493Z,88.70
2018-08-04T19:10:39.068Z,87.80
2018-08-04T19:15:39.678Z,83.70
2018-08-04T19:18:11.091Z,84.80
2018-08-04T19:23:10.664Z,87.60
2018-08-04T19:25:40.055Z,87.50
2018-08-04T19:28:09.687Z,88.10
2018-08-04T19:30:38.679Z,86.60
2018-08-04T19:33:08.278Z,86.90
2018-08-04T19:35:37.817Z,88.30
2018-08-04T19:38:10.396Z,90.00
2018-08-04T19:40:40.257Z,88.50
2018-08-04T19:43:09.656Z,88.00
2018-08-04T19:45:39.322Z,88.40
2018-08-04T19:48:10.032Z,93.00
2018-08-04T19:50:41.349Z,91.40
2018-08-04T19:53:13.380Z,91.20
2018-08-04T19:55:47.099Z,90.70
2018-08-04T19:58:20.152Z,90.80
2018-08-04T20:00:53.170Z,91.50
2018-08-04T20:03:22.594Z,91.90
2018-08-04T20:05:55.462Z,92.90
2018-08-04T20:08:25.805Z,93.10
2018-08-04T20:10:55.979Z,93.00
2018-08-04T20:13:25.183Z,93.50
2018-08-04T20:18:23.772Z,93.40
2018-08-04T20:23:24.052Z,93.10
2018-08-04T20:25:55.701Z,96.50
2018-08-04T20:28:25.227Z,96.00
2018-08-04T20:31:01.499Z,97.10
2018-08-04T20:33:38.489Z,97.20
2018-08-04T20:36:09.009Z,99.00
2018-08-04T20:38:38.912Z,99.70
2018-08-04T20:41:08.153Z,98.70
2018-08-04T20:43:37.735Z,99.00
2018-08-04T20:46:09.253Z,99.70
2018-08-04T20:48:38.854Z,99.90
2018-08-04T20:51:09.331Z,99.90
2018-08-04T20:53:40.623Z,99.90
2018-08-04T20:56:10.757Z,99.90
2018-08-04T20:58:40.183Z,99.90
2018-08-04T21:01:20.833Z,99.60
2018-08-04T21:03:51.045Z,99.60
2018-08-04T21:06:20.621Z,99.30
2018-08-04T21:08:51.089Z,99.10
2018-08-04T21:11:24.611Z,98.70
2018-08-04T21:13:54.189Z,99.10
2018-08-04T21:16:23.378Z,99.90
2018-08-04T21:18:55.690Z,99.60
2018-08-04T21:21:25.322Z,99.80
2018-08-04T21:23:54.993Z,99.90
2018-08-04T21:26:24.177Z,99.90
2018-08-04T21:28:53.160Z,99.90
2018-08-04T21:31:22.890Z,99.90
2018-08-04T21:33:53.331Z,99.90
2018-08-04T21:36:22.914Z,99.90
2018-08-04T21:38:52.167Z,99.90
2018-08-04T21:41:24.210Z,99.90
2018-08-04T21:43:53.659Z,99.90
2018-08-04T21:46:22.740Z,99.90
2018-08-04T21:48:51.947Z,99.90
2018-08-04T21:51:21.296Z,99.90
2018-08-04T21:53:50.403Z,99.90
2018-08-04T21:56:19.473Z,99.90
2018-08-04T21:58:48.747Z,99.90
2018-08-04T22:01:22.886Z,99.90
2018-08-04T22:03:52.096Z,99.90
2018-08-04T22:06:22.762Z,99.90
2018-08-04T22:09:02.862Z,99.90
2018-08-04T22:11:32.025Z,99.90
2018-08-04T22:14:01.249Z,99.90
2018-08-04T22:16:30.316Z,99.90
2018-08-04T22:18:59.641Z,99.90
2018-08-04T22:21:28.961Z,99.90
2018-08-04T22:23:58.010Z,99.90
2018-08-04T22:26:27.344Z,99.90
2018-08-04T22:28:56.844Z,99.90
2018-08-04T22:31:26.365Z,99.90
2018-08-04T22:33:55.496Z,99.90
2018-08-04T22:36:24.499Z,99.90
2018-08-04T22:38:53.608Z,99.90
2018-08-04T22:41:22.777Z,99.90
2018-08-04T22:43:51.535Z,99.90
2018-08-04T22:46:20.321Z,99.90
2018-08-04T22:48:52.797Z,99.90
2018-08-04T22:51:26.567Z,99.90
2018-08-04T22:53:55.997Z,99.90
2018-08-04T22:56:25.362Z,99.90
2018-08-04T22:58:54.248Z,99.90
2018-08-04T23:01:23.749Z,99.90
2018-08-04T23:03:53.114Z,99.90
2018-08-04T23:06:22.574Z,99.90
2018-08-04T23:08:53.184Z,99.90
2018-08-04T23:11:22.300Z,99.90
2018-08-04T23:13:51.431Z,99.90
2018-08-04T23:16:22.499Z,99.90
2018-08-04T23:18:51.296Z,99.90
2018-08-04T23:21:20.706Z,99.90
2018-08-04T23:23:49.681Z,99.90
2018-08-04T23:26:18.732Z,99.90
2018-08-04T23:28:48.325Z,99.90
2018-08-04T23:31:17.467Z,99.90
2018-08-04T23:33:47.338Z,99.90
2018-08-04T23:36:16.569Z,99.90
2018-08-04T23:38:46.284Z,99.90
2018-08-04T23:41:15.211Z,99.90
2018-08-04T23:43:44.071Z,99.90
2018-08-04T23:46:13.090Z,99.90
2018-08-04T23:48:42.468Z,99.90
2018-08-04T23:51:11.507Z,99.90
2018-08-04T23:53:43.934Z,99.90
2018-08-04T23:56:13.113Z,99.90
2018-08-04T23:58:42.422Z,99.90
